Time;durP1;ratioP1;P1;durP2;ratioP2;P2;SDS_P1;SDS_P2;PMS_P1;PMS_P2;Temp;Humidity;BMP_temperature;BMP_pressure;BME280_temperature;BME280_humidity;BME280_pressure;Samples;Min_cycle;Max_cycle;Signal;HPM_P1;HPM_P2
2023/07/03 00:00:39;;;;;;;10.52;6.25;;;;;;;20.48;100.00;97649.78;5029849;28;20181;-57
2023/07/03 00:03:05;;;;;;;8.10;6.15;;;;;;;20.43;100.00;97663.50;5032153;28;20838;-57
2023/07/03 00:05:30;;;;;;;6.07;5.20;;;;;;;20.69;100.00;97686.63;5018022;28;20559;-57
2023/07/03 00:07:56;;;;;;;8.77;5.65;;;;;;;20.71;100.00;97687.25;5013733;28;20187;-57
2023/07/03 00:10:21;;;;;;;10.43;6.25;;;;;;;20.54;100.00;97670.06;5033292;28;20235;-57
2023/07/03 00:12:47;;;;;;;10.95;5.95;;;;;;;20.72;100.00;97688.88;5033341;28;20193;-57
2023/07/03 00:15:14;;;;;;;10.43;6.10;;;;;;;20.73;100.00;97683.44;5033303;28;20702;-57
2023/07/03 00:17:40;;;;;;;7.82;5.28;;;;;;;20.62;100.00;97664.69;5033165;28;20186;-57
2023/07/03 00:20:07;;;;;;;8.25;5.50;;;;;;;20.26;100.00;97661.22;5033216;28;20730;-57
2023/07/03 00:22:32;;;;;;;11.00;6.53;;;;;;;20.28;100.00;97667.13;5033025;28;20219;-57
2023/07/03 00:24:58;;;;;;;7.82;6.00;;;;;;;20.44;100.00;97690.56;5033165;28;20194;-57
2023/07/03 00:27:23;;;;;;;12.18;6.35;;;;;;;20.24;100.00;97671.13;5033130;28;20190;-57
2023/07/03 00:29:49;;;;;;;8.95;5.40;;;;;;;20.32;100.00;97678.88;5052852;28;20292;-57
2023/07/03 00:32:14;;;;;;;8.45;5.70;;;;;;;20.09;100.00;97665.06;5052935;28;20236;-57
2023/07/03 00:34:39;;;;;;;8.85;5.90;;;;;;;20.15;100.00;97659.06;5052764;28;20232;-57
2023/07/03 00:37:05;;;;;;;13.30;6.25;;;;;;;20.06;100.00;97662.78;5052794;28;20649;-57
2023/07/03 00:39:31;;;;;;;7.85;5.57;;;;;;;20.20;100.00;97672.47;5052755;28;20290;-57
2023/07/03 00:41:57;;;;;;;8.07;5.97;;;;;;;20.21;100.00;97668.84;5052690;28;20209;-57
2023/07/03 00:44:23;;;;;;;7.78;6.03;;;;;;;20.27;100.00;97671.56;5052568;28;20185;-57
2023/07/03 00:46:50;;;;;;;8.35;6.35;;;;;;;20.17;100.00;97659.72;5052457;28;20246;-57
2023/07/03 00:49:18;;;;;;;11.35;5.50;;;;;;;20.24;100.00;97658.00;5037617;28;20220;-57
2023/07/03 00:51:46;;;;;;;7.78;5.35;;;;;;;20.26;100.00;97677.00;5032731;28;20214;-57
2023/07/03 00:54:12;;;;;;;6.65;5.50;;;;;;;20.27;100.00;97658.44;5032683;28;20281;-57
2023/07/03 00:56:37;;;;;;;6.88;5.32;;;;;;;20.51;100.00;97684.41;5032608;28;20668;-57
2023/07/03 00:59:04;;;;;;;8.43;5.65;;;;;;;20.61;100.00;97684.09;5032500;28;20189;-57
2023/07/03 01:01:36;;;;;;;8.82;5.97;;;;;;;20.48;100.00;97655.03;5001436;28;20214;-57
2023/07/03 01:04:08;;;;;;;7.05;6.32;;;;;;;20.73;100.00;97693.13;4993130;28;20650;-57
2023/07/03 01:06:42;;;;;;;7.68;5.65;;;;;;;20.78;100.00;97686.34;4993041;28;20265;-57
2023/07/03 01:09:11;;;;;;;9.63;6.10;;;;;;;20.63;100.00;97675.03;4993125;28;20250;-57
2023/07/03 01:11:37;;;;;;;7.20;5.75;;;;;;;20.69;100.00;97684.00;4992937;28;20237;-57
2023/07/03 01:14:05;;;;;;;7.90;5.78;;;;;;;20.75;100.00;97686.69;4991793;28;20179;-57
2023/07/03 01:16:32;;;;;;;11.75;5.82;;;;;;;20.70;100.00;97677.75;4992834;28;20320;-57
2023/07/03 01:18:59;;;;;;;8.23;5.72;;;;;;;20.56;100.00;97681.19;4992862;28;20644;-57
2023/07/03 01:21:45;;;;;;;8.00;5.53;;;;;;;20.47;100.00;97669.19;4992609;28;20301;-57
2023/07/03 01:24:14;;;;;;;11.45;6.22;;;;;;;20.60;100.00;97678.03;4992797;28;20713;-57
2023/07/03 01:26:43;;;;;;;8.50;6.25;;;;;;;20.76;100.00;97698.03;4992932;28;20285;-57
2023/07/03 01:29:10;;;;;;;9.70;6.25;;;;;;;20.75;100.00;97670.13;4992637;28;20183;-57
2023/07/03 01:31:38;;;;;;;6.18;5.13;;;;;;;20.71;100.00;97695.13;4995605;28;20681;-57
2023/07/03 01:34:08;;;;;;;9.20;6.07;;;;;;;20.44;100.00;97669.53;5031730;28;20216;-57
2023/07/03 01:36:35;;;;;;;8.55;6.05;;;;;;;20.44;100.00;97685.31;5002828;28;20190;-57
2023/07/03 01:39:02;;;;;;;9.18;6.63;;;;;;;20.60;100.00;97703.50;5011936;28;20243;-57
2023/07/03 01:41:29;;;;;;;8.65;6.35;;;;;;;20.37;100.00;97673.91;5011745;28;20211;-57
2023/07/03 01:43:55;;;;;;;7.15;6.30;;;;;;;20.61;100.00;97710.38;5011927;28;20182;-57
2023/07/03 01:46:20;;;;;;;7.75;5.85;;;;;;;20.50;100.00;97688.03;5011706;28;20191;-56
2023/07/03 01:48:46;;;;;;;7.85;6.43;;;;;;;20.57;100.00;97701.25;5011831;28;20199;-56
2023/07/03 01:51:18;;;;;;;13.43;6.90;;;;;;;20.51;100.00;97696.75;5011808;28;20221;-56
2023/07/03 01:54:05;;;;;;;8.02;6.25;;;;;;;20.43;100.00;97688.94;5011759;28;20186;-56
2023/07/03 01:56:35;;;;;;;7.78;5.68;;;;;;;20.61;100.00;97713.00;5011653;28;20190;-56
2023/07/03 01:59:10;;;;;;;8.50;6.25;;;;;;;20.37;100.00;97693.13;5011927;28;20292;-57
2023/07/03 02:01:45;;;;;;;9.57;6.57;;;;;;;20.53;100.00;97723.66;5011490;28;20245;-57
2023/07/03 02:04:32;;;;;;;7.68;5.68;;;;;;;20.29;100.00;97700.28;5008876;28;20677;-56
2023/07/03 02:07:00;;;;;;;10.05;6.03;;;;;;;20.20;100.00;97706.63;5003819;28;20679;-56
2023/07/03 02:09:26;;;;;;;8.18;5.68;;;;;;;20.14;100.00;97709.97;5033584;28;20174;-57
2023/07/03 02:11:53;;;;;;;7.07;5.97;;;;;;;20.10;100.00;97719.25;5033265;28;20181;-57
2023/07/03 02:14:18;;;;;;;9.05;6.32;;;;;;;20.07;100.00;97727.47;5033234;28;20174;-57
2023/07/03 02:16:47;;;;;;;7.97;5.97;;;;;;;19.94;100.00;97719.38;5050896;28;20200;-57
2023/07/03 02:19:15;;;;;;;6.35;5.70;;;;;;;20.03;100.00;97734.03;5050861;28;20232;-57
2023/07/03 02:21:41;;;;;;;8.93;5.95;;;;;;;19.90;100.00;97712.84;5050713;28;20217;-56
2023/07/03 02:24:08;;;;;;;9.32;6.65;;;;;;;19.85;100.00;97717.81;5050832;28;20177;-57
2023/07/03 02:26:33;;;;;;;8.40;6.18;;;;;;;19.93;100.00;97726.44;5050447;28;20201;-57
2023/07/03 02:28:59;;;;;;;7.28;6.30;;;;;;;20.00;100.00;97727.34;5050725;28;20212;-57
2023/07/03 02:31:24;;;;;;;8.85;6.30;;;;;;;20.18;100.00;97734.91;5050696;28;20280;-57
2023/07/03 02:33:49;;;;;;;8.77;6.53;;;;;;;20.26;100.00;97745.31;5050642;28;20174;-56
2023/07/03 02:36:15;;;;;;;11.75;6.40;;;;;;;20.04;100.00;97712.06;5050589;28;20185;-56
2023/07/03 02:38:40;;;;;;;8.30;5.75;;;;;;;20.21;100.00;97729.28;5050544;28;20682;-57
2023/07/03 02:41:06;;;;;;;8.40;5.75;;;;;;;20.21;100.00;97731.91;5010658;28;20198;-57
2023/07/03 02:43:31;;;;;;;8.80;6.40;;;;;;;20.32;100.00;97750.66;5010786;28;20597;-57
2023/07/03 02:46:06;;;;;;;9.85;6.22;;;;;;;20.25;100.00;97746.31;5010817;28;20657;-58
2023/07/03 02:48:31;;;;;;;8.98;6.25;;;;;;;20.11;100.00;97736.63;5010593;28;20206;-56
2023/07/03 02:50:57;;;;;;;10.80;6.55;;;;;;;19.90;100.00;97718.09;5030285;28;20190;-56
2023/07/03 02:53:22;;;;;;;8.23;6.68;;;;;;;20.02;100.00;97724.53;5030403;28;20200;-57
2023/07/03 02:55:49;;;;;;;8.35;5.93;;;;;;;20.04;100.00;97725.97;5030401;28;20182;-56
2023/07/03 02:58:14;;;;;;;8.80;6.47;;;;;;;20.12;100.00;97746.94;5030336;28;20216;-56
2023/07/03 03:00:41;;;;;;;9.48;6.53;;;;;;;20.06;100.00;97725.81;5030367;28;20221;-56
2023/07/03 03:03:07;;;;;;;8.68;6.50;;;;;;;20.17;100.00;97746.41;5030285;28;20656;-57
2023/07/03 03:05:32;;;;;;;8.68;6.50;;;;;;;20.25;100.00;97741.88;5030109;28;20289;-56
2023/07/03 03:07:58;;;;;;;7.70;6.28;;;;;;;20.49;100.00;97756.53;5030206;28;20192;-56
2023/07/03 03:10:24;;;;;;;11.32;6.85;;;;;;;20.57;100.00;97751.19;5030085;28;20670;-56
2023/07/03 03:12:49;;;;;;;8.48;6.50;;;;;;;20.59;100.00;97760.53;5030128;28;20232;-56
2023/07/03 03:15:17;;;;;;;11.07;6.47;;;;;;;20.33;100.00;97733.91;5030049;28;20247;-56
2023/07/03 03:17:43;;;;;;;11.25;7.28;;;;;;;20.46;100.00;97738.53;5029994;28;20193;-56
2023/07/03 03:20:10;;;;;;;9.90;6.43;;;;;;;20.59;100.00;97757.09;5060538;28;20197;-57
2023/07/03 03:22:35;;;;;;;10.50;7.32;;;;;;;20.54;100.00;97759.44;5040454;28;20205;-57
2023/07/03 03:25:01;;;;;;;9.77;6.53;;;;;;;20.53;100.00;97757.81;5049579;28;20195;-57
2023/07/03 03:27:26;;;;;;;8.75;6.43;;;;;;;20.44;100.00;97758.91;5049768;28;20192;-56
2023/07/03 03:29:52;;;;;;;7.55;6.35;;;;;;;20.08;100.00;97736.97;5049720;28;20185;-56
2023/07/03 03:32:17;;;;;;;13.68;6.68;;;;;;;20.06;100.00;97736.31;5049700;28;20181;-56
2023/07/03 03:34:43;;;;;;;10.02;7.18;;;;;;;20.25;100.00;97762.06;5049564;28;20632;-56
2023/07/03 03:37:08;;;;;;;7.93;6.57;;;;;;;20.24;100.00;97766.53;5048974;28;20189;-56
2023/07/03 03:39:33;;;;;;;7.80;6.10;;;;;;;20.26;100.00;97755.81;5049687;28;20181;-56
2023/07/03 03:41:59;;;;;;;8.43;6.57;;;;;;;20.32;100.00;97770.84;5049752;28;20200;-56
2023/07/03 03:44:24;;;;;;;8.18;6.53;;;;;;;20.31;100.00;97772.69;5049661;28;20181;-56
2023/07/03 03:46:52;;;;;;;10.48;6.90;;;;;;;19.96;100.00;97739.22;5048977;28;20650;-56
2023/07/03 03:49:19;;;;;;;8.73;6.07;;;;;;;20.18;100.00;97775.13;5049664;28;20316;-56
2023/07/03 03:51:44;;;;;;;9.68;6.32;;;;;;;20.19;100.00;97773.31;5049587;28;20648;-56
2023/07/03 03:54:10;;;;;;;10.25;6.25;;;;;;;20.30;100.00;97786.00;5049536;28;20184;-56
2023/07/03 03:56:36;;;;;;;10.82;6.55;;;;;;;20.10;100.00;97758.66;5049450;28;20189;-57
2023/07/03 03:59:01;;;;;;;7.65;6.40;;;;;;;20.34;100.00;97785.44;5049520;28;20185;-56
2023/07/03 04:01:27;;;;;;;10.45;6.85;;;;;;;20.19;100.00;97768.88;5047621;28;20192;-56
2023/07/03 04:03:53;;;;;;;9.82;7.22;;;;;;;20.29;100.00;97774.66;5031580;28;20566;-56
2023/07/03 04:06:18;;;;;;;10.73;7.18;;;;;;;20.48;100.00;97789.09;5031618;28;20182;-56
2023/07/03 04:08:44;;;;;;;11.45;6.90;;;;;;;20.49;100.00;97772.31;5031876;28;20182;-56
2023/07/03 04:11:10;;;;;;;10.23;6.88;;;;;;;20.49;100.00;97764.44;5031569;28;20715;-56
2023/07/03 04:13:36;;;;;;;9.82;6.30;;;;;;;20.71;100.00;97784.53;5031636;28;20257;-56
2023/07/03 04:16:03;;;;;;;8.00;6.47;;;;;;;20.86;100.00;97787.97;5031813;28;20636;-57
2023/07/03 04:18:29;;;;;;;8.52;6.43;;;;;;;21.01;100.00;97796.66;5029291;28;20194;-56
2023/07/03 04:20:55;;;;;;;8.02;5.72;;;;;;;21.14;100.00;97796.81;5029492;28;20186;-56
2023/07/03 04:23:21;;;;;;;7.03;5.80;;;;;;;21.20;100.00;97801.31;5029286;28;20218;-56
2023/07/03 04:25:48;;;;;;;12.98;6.15;;;;;;;21.01;100.00;97788.78;5029384;28;20645;-56
2023/07/03 04:28:16;;;;;;;6.40;5.57;;;;;;;20.96;100.00;97783.25;5029278;28;20197;-57
2023/07/03 04:30:42;;;;;;;9.10;6.35;;;;;;;20.93;100.00;97776.53;5029269;28;20182;-56
2023/07/03 04:33:08;;;;;;;9.95;5.90;;;;;;;21.20;100.00;97811.84;5049045;28;20185;-56
2023/07/03 04:35:33;;;;;;;9.80;6.05;;;;;;;21.10;100.00;97803.47;5049230;28;20217;-56
2023/07/03 04:38:01;;;;;;;7.75;5.93;;;;;;;21.14;100.00;97787.09;5049122;28;20188;-56
2023/07/03 04:40:27;;;;;;;7.10;5.45;;;;;;;21.29;100.00;97805.50;4989868;28;20191;-56
2023/07/03 04:42:52;;;;;;;6.85;6.13;;;;;;;21.34;100.00;97809.19;4989748;28;20718;-56
2023/07/03 04:45:21;;;;;;;10.35;5.90;;;;;;;21.11;100.00;97781.41;4989890;28;20191;-56
2023/07/03 04:47:47;;;;;;;8.88;5.35;;;;;;;21.23;100.00;97807.06;4990192;28;20253;-56
2023/07/03 04:50:16;;;;;;;7.75;6.03;;;;;;;21.13;100.00;97810.97;4993398;28;20191;-56
2023/07/03 04:52:43;;;;;;;8.25;5.93;;;;;;;21.02;100.00;97808.81;4993592;28;20226;-56
2023/07/03 04:55:11;;;;;;;8.32;6.32;;;;;;;21.08;100.00;97819.41;4973696;28;20226;-56
2023/07/03 04:57:38;;;;;;;7.03;5.55;;;;;;;21.24;100.00;97824.47;4973775;28;20184;-56
2023/07/03 05:00:14;;;;;;;9.55;6.13;;;;;;;21.44;100.00;97829.97;4973776;28;20312;-56
2023/07/03 05:02:44;;;;;;;6.68;5.35;;;;;;;21.40;100.00;97812.91;4973682;28;20207;-56
2023/07/03 05:05:12;;;;;;;9.23;6.05;;;;;;;21.63;100.00;97832.75;4973592;28;20207;-56
2023/07/03 05:07:39;;;;;;;8.35;6.22;;;;;;;21.54;100.00;97812.84;4973708;28;20196;-56
2023/07/03 05:10:06;;;;;;;8.15;5.53;;;;;;;21.74;100.00;97815.69;4973592;28;20190;-56
2023/07/03 05:12:31;;;;;;;6.97;5.75;;;;;;;21.88;100.00;97831.44;5029795;28;20190;-56
2023/07/03 05:14:57;;;;;;;9.65;6.40;;;;;;;21.98;100.00;97834.53;5032328;28;20200;-57
2023/07/03 05:17:23;;;;;;;9.05;6.18;;;;;;;22.03;100.00;97829.50;5032322;28;20269;-57
2023/07/03 05:19:48;;;;;;;8.20;6.22;;;;;;;22.06;100.00;97826.50;5032232;28;20181;-57
2023/07/03 05:22:14;;;;;;;6.80;5.35;;;;;;;22.08;100.00;97806.03;5032102;28;20231;-56
2023/07/03 05:24:39;;;;;;;7.72;5.97;;;;;;;22.38;100.00;97841.75;5032172;28;20178;-57
2023/07/03 05:27:05;;;;;;;8.32;5.60;;;;;;;22.30;100.00;97833.16;5032073;28;20193;-57
2023/07/03 05:29:32;;;;;;;8.82;5.28;;;;;;;22.23;100.00;97812.03;5032005;28;20174;-57
2023/07/03 05:31:59;;;;;;;6.85;5.70;;;;;;;22.28;100.00;97824.63;5032514;28;20692;-56
2023/07/03 05:34:25;;;;;;;6.40;5.70;;;;;;;22.33;100.00;97827.53;5034302;28;20562;-57
2023/07/03 05:36:50;;;;;;;9.23;5.38;;;;;;;22.37;100.00;97847.22;5034282;28;20174;-57
2023/07/03 05:39:15;;;;;;;8.38;5.57;;;;;;;22.53;100.00;97854.84;5034500;28;20174;-57
2023/07/03 05:41:41;;;;;;;6.90;5.70;;;;;;;22.57;100.00;97856.09;5033761;28;20204;-57
2023/07/03 05:44:06;;;;;;;8.90;6.40;;;;;;;22.65;100.00;97853.31;5034370;28;20633;-56
2023/07/03 05:46:32;;;;;;;6.60;5.47;;;;;;;22.58;100.00;97836.63;5033820;28;20181;-56
2023/07/03 05:48:57;;;;;;;7.90;5.93;;;;;;;22.66;100.00;97836.50;5033837;28;20164;-56
2023/07/03 05:51:22;;;;;;;8.63;5.88;;;;;;;22.85;100.00;97857.69;5034009;28;20597;-56
2023/07/03 05:53:49;;;;;;;7.38;5.95;;;;;;;22.92;100.00;97855.09;5033962;28;20179;-56
2023/07/03 05:56:14;;;;;;;8.68;6.38;;;;;;;22.99;100.00;97858.56;5031431;28;20287;-57
2023/07/03 05:58:40;;;;;;;6.43;5.80;;;;;;;22.90;100.00;97850.00;5031692;28;20186;-56
2023/07/03 06:01:05;;;;;;;6.85;5.75;;;;;;;23.02;100.00;97850.28;5030849;28;20189;-58
2023/07/03 06:03:31;;;;;;;8.38;5.85;;;;;;;23.07;100.00;97859.22;5031273;28;20200;-57
2023/07/03 06:05:57;;;;;;;8.73;6.00;;;;;;;23.20;100.00;97863.78;5031237;28;20221;-57
2023/07/03 06:08:23;;;;;;;7.97;6.13;;;;;;;23.25;100.00;97848.16;5031386;28;20300;-58
2023/07/03 06:10:49;;;;;;;8.43;6.07;;;;;;;23.27;100.00;97838.22;5031208;28;20190;-57
2023/07/03 06:13:14;;;;;;;7.65;5.60;;;;;;;23.25;100.00;97832.31;5031165;28;20684;-58
2023/07/03 06:15:41;;;;;;;6.30;5.65;;;;;;;23.50;100.00;97851.88;5031173;28;20189;-57
2023/07/03 06:18:06;;;;;;;7.38;6.28;;;;;;;23.59;100.00;97858.63;5031123;28;20699;-57
2023/07/03 06:20:34;;;;;;;8.35;6.50;;;;;;;23.56;100.00;97832.59;5031230;28;20198;-58
2023/07/03 06:23:00;;;;;;;6.45;5.60;;;;;;;23.77;100.00;97856.22;5030828;28;20304;-58
2023/07/03 06:25:25;;;;;;;11.25;6.88;;;;;;;23.80;100.00;97856.63;5031042;28;20564;-58
2023/07/03 06:27:51;;;;;;;9.88;5.88;;;;;;;23.83;100.00;97841.19;5032507;28;20209;-58
2023/07/03 06:30:17;;;;;;;8.40;6.00;;;;;;;23.83;100.00;97834.28;5033306;28;20186;-57
2023/07/03 06:32:43;;;;;;;8.15;6.60;;;;;;;24.06;100.00;97853.25;5033195;28;20189;-57
2023/07/03 06:35:08;;;;;;;11.07;7.70;;;;;;;24.12;100.00;97847.13;5033196;28;20261;-57
2023/07/03 06:37:34;;;;;;;13.45;6.72;;;;;;;24.25;100.00;97851.41;5030619;28;20190;-57
2023/07/03 06:40:00;;;;;;;7.75;6.30;;;;;;;24.26;100.00;97860.16;5030726;28;20194;-57
2023/07/03 06:42:25;;;;;;;8.10;5.82;;;;;;;24.40;100.00;97870.53;5030606;28;20206;-57
2023/07/03 06:44:50;;;;;;;8.13;6.60;;;;;;;24.30;100.00;97843.66;5030644;28;20638;-57
2023/07/03 06:47:16;;;;;;;8.27;6.72;;;;;;;24.44;100.00;97874.38;5030324;28;20221;-57
2023/07/03 06:49:41;;;;;;;9.10;5.75;;;;;;;24.55;100.00;97862.38;5030846;28;20190;-57
2023/07/03 06:52:10;;;;;;;6.72;5.97;;;;;;;24.70;100.00;97865.63;5030571;28;20209;-57
2023/07/03 06:54:35;;;;;;;9.40;7.38;;;;;;;24.63;100.00;97844.47;5030370;28;20201;-57
2023/07/03 06:57:01;;;;;;;7.40;6.70;;;;;;;24.80;100.00;97853.59;5030614;28;20232;-57
2023/07/03 06:59:27;;;;;;;8.77;7.13;;;;;;;24.94;100.00;97873.69;5030401;28;20185;-57
2023/07/03 07:01:52;;;;;;;9.25;7.38;;;;;;;24.84;100.00;97848.69;5030305;28;20715;-57
2023/07/03 07:04:18;;;;;;;10.70;9.60;;;;;;;24.87;100.00;97857.03;5030555;28;20186;-57
2023/07/03 07:06:43;;;;;;;13.52;11.63;;;;;;;25.11;100.00;97871.41;5030246;28;20178;-57
2023/07/03 07:09:09;;;;;;;14.75;11.75;;;;;;;25.18;100.00;97851.81;5031799;28;20189;-57
2023/07/03 07:11:35;;;;;;;13.00;11.65;;;;;;;25.33;100.00;97856.88;5031642;28;20213;-57
2023/07/03 07:14:03;;;;;;;13.80;11.70;;;;;;;25.45;100.00;97845.41;5032541;28;20173;-57
2023/07/03 07:16:31;;;;;;;13.02;11.68;;;;;;;25.65;100.00;97862.00;5032538;28;20217;-57
2023/07/03 07:19:00;;;;;;;12.65;11.38;;;;;;;25.80;100.00;97870.50;5032497;28;20177;-57
2023/07/03 07:21:26;;;;;;;13.77;12.38;;;;;;;25.74;100.00;97844.84;5032116;28;20648;-57
2023/07/03 07:23:54;;;;;;;15.10;11.80;;;;;;;25.99;100.00;97880.19;5032395;28;20209;-57
2023/07/03 07:26:23;;;;;;;12.50;11.20;;;;;;;26.05;100.00;97884.63;5032331;28;20656;-57
2023/07/03 07:28:48;;;;;;;12.75;10.50;;;;;;;26.01;100.00;97856.91;5032041;28;20174;-57
2023/07/03 07:31:27;;;;;;;11.77;10.38;;;;;;;26.16;93.56;97878.63;5032325;28;20185;-57
2023/07/03 07:33:52;;;;;;;11.90;10.70;;;;;;;26.19;85.32;97885.34;5031957;28;20181;-57
2023/07/03 07:36:20;;;;;;;11.57;10.45;;;;;;;26.18;82.35;97873.91;5032247;28;20178;-57
2023/07/03 07:38:45;;;;;;;13.73;9.88;;;;;;;26.23;77.87;97875.94;5031909;28;20620;-57
2023/07/03 07:41:11;;;;;;;14.68;10.13;;;;;;;26.32;77.80;97887.88;5030633;28;20261;-57
2023/07/03 07:43:37;;;;;;;10.85;9.75;;;;;;;26.18;79.08;97858.00;5032390;28;20209;-57
2023/07/03 07:46:03;;;;;;;12.93;11.65;;;;;;;26.41;81.32;97886.59;5032183;28;20174;-57
2023/07/03 07:48:29;;;;;;;12.63;11.43;;;;;;;26.32;80.68;97869.31;5032603;28;20798;-57
2023/07/03 07:50:54;;;;;;;13.18;11.77;;;;;;;26.55;81.75;97888.94;5032162;28;20166;-57
2023/07/03 07:53:20;;;;;;;13.60;11.85;;;;;;;26.61;83.60;97890.72;5032069;28;20184;-57
2023/07/03 07:55:45;;;;;;;14.35;10.85;;;;;;;26.71;75.95;97904.28;5031800;28;20182;-57
2023/07/03 07:58:11;;;;;;;10.70;9.55;;;;;;;26.53;76.34;97866.28;5029488;28;20196;-57
2023/07/03 08:00:36;;;;;;;12.05;10.20;;;;;;;26.71;74.75;97898.97;5029593;28;20182;-57
2023/07/03 08:03:02;;;;;;;11.90;10.70;;;;;;;26.64;73.14;97890.28;5029553;28;20247;-57
2023/07/03 08:05:27;;;;;;;16.23;11.20;;;;;;;26.61;75.22;97873.97;5029623;28;20178;-57
2023/07/03 08:07:53;;;;;;;12.70;10.68;;;;;;;26.61;74.95;97874.81;5029631;28;20658;-57
2023/07/03 08:10:19;;;;;;;12.50;11.20;;;;;;;26.83;77.77;97905.19;5029569;28;20215;-57
2023/07/03 08:12:45;;;;;;;13.07;11.75;;;;;;;26.81;77.25;97886.03;5029524;28;20200;-57
2023/07/03 08:15:11;;;;;;;14.15;11.57;;;;;;;26.99;75.12;97909.94;5029589;28;20182;-57
2023/07/03 08:17:36;;;;;;;12.15;10.90;;;;;;;26.91;74.58;97877.56;5029442;28;20197;-57
2023/07/03 08:20:02;;;;;;;12.60;11.40;;;;;;;27.13;73.59;97905.31;5029591;28;20178;-57
2023/07/03 08:22:27;;;;;;;14.40;11.63;;;;;;;27.17;72.90;97901.22;5029471;28;20747;-57
2023/07/03 08:24:53;;;;;;;14.98;11.48;;;;;;;27.22;72.71;97912.00;5033251;28;20181;-57
2023/07/03 08:27:19;;;;;;;12.55;11.10;;;;;;;27.23;71.90;97914.41;5013369;28;20206;-57
2023/07/03 08:29:46;;;;;;;12.60;11.40;;;;;;;27.26;71.82;97921.13;5027998;28;20186;-57
2023/07/03 08:32:12;;;;;;;14.23;11.77;;;;;;;27.23;72.34;97903.78;5033159;28;20197;-57
2023/07/03 08:34:37;;;;;;;11.50;10.30;;;;;;;27.34;70.14;97921.63;5033024;28;20178;-57
2023/07/03 08:37:03;;;;;;;12.65;11.45;;;;;;;27.30;70.23;97906.38;5013077;28;20191;-57
2023/07/03 08:39:29;;;;;;;14.63;12.07;;;;;;;27.25;71.85;97901.72;5013185;28;20262;-57
2023/07/03 08:42:15;;;;;;;12.68;11.40;;;;;;;27.39;71.71;97915.66;5013153;28;20304;-57
2023/07/03 08:44:41;;;;;;;11.27;10.18;;;;;;;27.48;70.21;97917.81;5013150;28;20194;-57
2023/07/03 08:47:11;;;;;;;11.77;10.57;;;;;;;27.47;71.66;97912.72;5012679;28;20202;-57
2023/07/03 08:49:38;;;;;;;13.10;11.85;;;;;;;27.43;71.80;97896.41;5013096;28;20187;-57
2023/07/03 08:52:04;;;;;;;12.48;11.27;;;;;;;27.69;70.85;97922.63;5032574;28;20688;-57
2023/07/03 08:54:34;;;;;;;13.82;12.15;;;;;;;27.53;69.56;97899.31;5032660;28;20190;-57
2023/07/03 08:57:03;;;;;;;14.63;12.38;;;;;;;27.59;71.41;97903.72;5032605;28;20197;-57
2023/07/03 08:59:28;;;;;;;13.35;11.45;;;;;;;27.75;69.44;97927.03;5015936;28;20267;-58
2023/07/03 09:02:14;;;;;;;15.35;11.88;;;;;;;27.69;69.71;97911.19;5032449;28;20740;-58
2023/07/03 09:05:01;;;;;;;13.32;11.93;;;;;;;27.80;68.68;97915.75;5032514;28;20181;-56
2023/07/03 09:07:37;;;;;;;11.75;10.65;;;;;;;27.72;68.69;97900.09;5037403;28;20211;-55
2023/07/03 09:10:27;;;;;;;12.27;11.10;;;;;;;27.83;69.43;97924.13;5052375;28;20660;-56
2023/07/03 09:12:55;;;;;;;13.25;11.27;;;;;;;27.89;68.99;97920.56;5047087;28;20208;-57
2023/07/03 09:15:30;;;;;;;14.38;11.18;;;;;;;27.97;68.65;97924.72;5052514;28;20184;-57
2023/07/03 09:17:58;;;;;;;13.15;10.50;;;;;;;27.99;67.17;97912.81;5052540;28;20181;-57
2023/07/03 09:20:26;;;;;;;11.50;10.30;;;;;;;28.06;66.00;97918.88;5052085;28;20709;-57
2023/07/03 09:23:14;;;;;;;11.10;9.98;;;;;;;27.94;65.25;97899.38;5023723;28;20214;-57
2023/07/03 09:25:49;;;;;;;11.68;10.55;;;;;;;28.08;66.36;97916.81;5031353;28;20225;-57
2023/07/03 09:28:14;;;;;;;11.05;9.95;;;;;;;28.18;67.01;97918.91;5032223;28;20169;-57
2023/07/03 09:30:40;;;;;;;11.43;10.25;;;;;;;28.24;64.47;97929.47;5012184;28;20186;-59
2023/07/03 09:33:06;;;;;;;11.52;10.07;;;;;;;28.19;63.69;97921.34;5012134;28;20602;-56
2023/07/03 09:35:36;;;;;;;10.50;9.50;;;;;;;28.23;63.45;97914.50;5011185;28;20275;-57
2023/07/03 09:38:05;;;;;;;10.10;9.05;;;;;;;28.32;62.55;97934.44;5012147;28;20194;-57
2023/07/03 09:40:37;;;;;;;10.60;9.55;;;;;;;28.27;61.29;97915.69;5012079;28;20201;-57
2023/07/03 09:43:03;;;;;;;10.15;9.13;;;;;;;28.39;61.27;97923.72;5011895;28;20266;-57
2023/07/03 09:45:33;;;;;;;10.13;9.13;;;;;;;28.45;61.23;97922.81;5012244;28;20256;-57
2023/07/03 09:48:02;;;;;;;11.93;9.25;;;;;;;28.52;60.15;97923.50;5011806;28;20316;-57
2023/07/03 09:50:36;;;;;;;10.00;9.00;;;;;;;28.45;60.19;97910.28;5011985;28;20332;-56
2023/07/03 09:53:03;;;;;;;10.95;9.88;;;;;;;28.38;61.27;97901.63;5015091;28;20228;-56
2023/07/03 09:55:29;;;;;;;11.10;9.93;;;;;;;28.53;61.92;97909.97;5031596;28;20218;-56
2023/07/03 09:57:54;;;;;;;10.85;9.82;;;;;;;28.56;64.30;97920.16;5031458;28;20594;-57
2023/07/03 10:00:25;;;;;;;11.55;10.35;;;;;;;28.68;62.75;97922.84;5031484;28;20550;-57
2023/07/03 10:03:00;;;;;;;10.10;9.10;;;;;;;28.79;60.50;97919.38;5033497;28;20204;-58
2023/07/03 10:05:32;;;;;;;9.98;8.38;;;;;;;28.90;59.72;97915.88;5033816;28;20173;-57
2023/07/03 10:08:01;;;;;;;9.93;9.02;;;;;;;28.93;58.78;97916.22;5033807;28;20174;-57
2023/07/03 10:10:29;;;;;;;9.85;8.85;;;;;;;29.10;58.57;97927.81;5033493;28;20601;-57
2023/07/03 10:12:55;;;;;;;9.32;8.40;;;;;;;29.10;57.14;97911.81;5033693;28;20186;-57
2023/07/03 10:15:27;;;;;;;10.32;9.15;;;;;;;29.17;58.05;97904.53;5033922;28;20166;-57
2023/07/03 10:18:20;;;;;;;10.00;9.02;;;;;;;29.40;56.22;97928.47;5050957;28;20193;-58
2023/07/03 10:20:48;;;;;;;9.57;8.68;;;;;;;29.46;55.77;97913.38;4991676;28;20249;-57
2023/07/03 10:23:21;;;;;;;9.13;8.20;;;;;;;29.57;55.61;97931.25;4991634;28;20210;-57
2023/07/03 10:25:54;;;;;;;9.20;8.20;;;;;;;29.61;56.54;97916.41;4991725;28;20732;-58
2023/07/03 10:28:25;;;;;;;10.32;8.23;;;;;;;29.57;52.29;97904.56;4991662;28;20190;-58
2023/07/03 10:30:58;;;;;;;9.00;8.00;;;;;;;29.63;53.58;97901.78;4972028;28;20251;-58
2023/07/03 10:33:29;;;;;;;8.73;7.82;;;;;;;29.83;51.91;97915.50;4991307;28;20187;-58
2023/07/03 10:35:55;;;;;;;7.45;6.70;;;;;;;29.90;51.12;97918.81;4991509;28;20191;-58
2023/07/03 10:38:36;;;;;;;7.80;6.88;;;;;;;29.95;51.94;97915.41;4971787;28;20227;-58
2023/07/03 10:41:10;;;;;;;8.10;7.30;;;;;;;30.04;51.88;97908.66;4972005;28;20192;-58
2023/07/03 10:43:45;;;;;;;9.00;8.13;;;;;;;29.98;52.30;97883.75;4971829;28;20227;-56
2023/07/03 10:46:30;;;;;;;9.60;8.43;;;;;;;30.10;51.57;97887.19;4971776;28;20191;-57
2023/07/03 10:49:01;;;;;;;9.45;8.45;;;;;;;30.25;52.14;97871.41;4961675;28;20201;-57
2023/07/03 10:51:50;;;;;;;12.05;9.25;;;;;;;30.66;52.44;97903.06;4952788;29;20184;-56
2023/07/03 10:54:41;;;;;;;9.43;7.25;;;;;;;30.93;51.25;97905.88;4971551;28;20196;-57
2023/07/03 10:57:16;;;;;;;9.63;6.88;;;;;;;31.15;48.43;97904.03;4914305;29;20185;-57
2023/07/03 10:59:48;;;;;;;8.10;7.30;;;;;;;31.35;48.47;97904.34;4914223;29;20288;-57
2023/07/03 11:02:28;;;;;;;10.48;8.82;;;;;;;31.53;47.93;97902.16;4926539;29;20213;-57
2023/07/03 11:05:21;;;;;;;8.57;7.75;;;;;;;31.73;48.62;97905.09;4946624;29;20196;-58
2023/07/03 11:07:57;;;;;;;10.30;7.88;;;;;;;31.92;47.43;97909.03;4952120;29;20224;-58
2023/07/03 11:10:38;;;;;;;9.63;8.55;;;;;;;32.01;47.80;97902.16;4970057;28;20198;-58
2023/07/03 11:13:51;;;;;;;11.70;8.75;;;;;;;32.04;47.83;97896.31;4971420;28;20207;-57
2023/07/03 11:16:21;;;;;;;11.32;8.80;;;;;;;32.13;47.45;97897.44;4952096;29;20195;-58
2023/07/03 11:18:55;;;;;;;9.50;8.60;;;;;;;32.29;47.87;97903.81;4952078;29;20706;-57
2023/07/03 11:21:26;;;;;;;8.95;8.00;;;;;;;32.46;44.82;97902.59;4952011;29;20240;-57
2023/07/03 11:24:16;;;;;;;12.52;8.23;;;;;;;32.52;46.28;97898.91;4952022;29;20255;-57
2023/07/03 11:26:49;;;;;;;10.55;7.53;;;;;;;32.69;45.48;97894.19;4932909;29;20645;-57